sensor_id;sensor_type;location;lat;lon;timestamp;pressure;altitude;pressure_sealevel;temperature;humidity
22649;BME280;11491;41.942;24.220;2023-02-21T00:00:42;90201.09;;;0.47;68.63
22649;BME280;11491;41.942;24.220;2023-02-21T00:03:26;90206.91;;;0.44;68.80
22649;BME280;11491;41.942;24.220;2023-02-21T00:06:10;90204.09;;;0.35;68.10
22649;BME280;11491;41.942;24.220;2023-02-21T00:08:55;90197.59;;;0.28;69.38
22649;BME280;11491;41.942;24.220;2023-02-21T00:11:41;90197.38;;;-0.31;71.72
22649;BME280;11491;41.942;24.220;2023-02-21T00:14:25;90203.63;;;-0.16;72.05
22649;BME280;11491;41.942;24.220;2023-02-21T00:17:10;90207.28;;;-0.07;70.94
22649;BME280;11491;41.942;24.220;2023-02-21T00:19:54;90202.00;;;-0.07;71.77
22649;BME280;11491;41.942;24.220;2023-02-21T00:22:38;90209.84;;;0.03;70.79
22649;BME280;11491;41.942;24.220;2023-02-21T00:25:23;90212.94;;;0.10;70.94
22649;BME280;11491;41.942;24.220;2023-02-21T00:28:07;90219.72;;;0.16;69.64
22649;BME280;11491;41.942;24.220;2023-02-21T00:30:51;90220.75;;;0.26;70.22
22649;BME280;11491;41.942;24.220;2023-02-21T00:33:35;90228.56;;;0.36;68.31
22649;BME280;11491;41.942;24.220;2023-02-21T00:36:19;90216.63;;;0.09;69.86
22649;BME280;11491;41.942;24.220;2023-02-21T00:39:02;90206.16;;;-0.01;70.62
22649;BME280;11491;41.942;24.220;2023-02-21T00:41:48;90204.41;;;-0.16;70.83
22649;BME280;11491;41.942;24.220;2023-02-21T00:44:32;90181.81;;;-0.17;71.44
22649;BME280;11491;41.942;24.220;2023-02-21T00:47:16;90204.97;;;-0.19;70.80
22649;BME280;11491;41.942;24.220;2023-02-21T00:50:00;90184.66;;;-0.08;71.46
22649;BME280;11491;41.942;24.220;2023-02-21T00:52:44;90196.66;;;0.08;70.73
22649;BME280;11491;41.942;24.220;2023-02-21T00:55:28;90192.91;;;0.14;70.72
22649;BME280;11491;41.942;24.220;2023-02-21T00:58:13;90197.66;;;0.17;70.45
22649;BME280;11491;41.942;24.220;2023-02-21T01:00:57;90194.50;;;0.15;70.56
22649;BME280;11491;41.942;24.220;2023-02-21T01:03:41;90190.19;;;0.30;69.79
22649;BME280;11491;41.942;24.220;2023-02-21T01:06:25;90185.41;;;0.37;68.93
22649;BME280;11491;41.942;24.220;2023-02-21T01:09:09;90171.81;;;0.25;69.39
22649;BME280;11491;41.942;24.220;2023-02-21T01:11:54;90181.88;;;0.17;69.56
22649;BME280;11491;41.942;24.220;2023-02-21T01:14:40;90178.19;;;0.18;69.20
22649;BME280;11491;41.942;24.220;2023-02-21T01:17:23;90177.00;;;0.01;69.10
22649;BME280;11491;41.942;24.220;2023-02-21T01:20:07;90172.50;;;0.01;70.33
22649;BME280;11491;41.942;24.220;2023-02-21T01:22:52;90161.44;;;0.04;70.27
22649;BME280;11491;41.942;24.220;2023-02-21T01:25:37;90165.63;;;0.10;69.80
22649;BME280;11491;41.942;24.220;2023-02-21T01:28:20;90151.66;;;0.10;69.95
22649;BME280;11491;41.942;24.220;2023-02-21T01:31:06;90142.22;;;0.09;70.37
22649;BME280;11491;41.942;24.220;2023-02-21T01:33:50;90136.78;;;-0.05;70.92
22649;BME280;11491;41.942;24.220;2023-02-21T01:36:34;90134.56;;;0.12;70.33
22649;BME280;11491;41.942;24.220;2023-02-21T01:39:17;90130.44;;;0.01;70.12
22649;BME280;11491;41.942;24.220;2023-02-21T01:42:02;90126.66;;;0.12;69.64
22649;BME280;11491;41.942;24.220;2023-02-21T01:44:47;90126.75;;;0.02;69.47
22649;BME280;11491;41.942;24.220;2023-02-21T01:47:33;90122.34;;;-0.08;69.92
22649;BME280;11491;41.942;24.220;2023-02-21T01:50:21;90112.06;;;-0.04;69.94
22649;BME280;11491;41.942;24.220;2023-02-21T01:53:08;90114.28;;;-0.16;70.35
22649;BME280;11491;41.942;24.220;2023-02-21T01:55:55;90113.31;;;-0.31;70.92
22649;BME280;11491;41.942;24.220;2023-02-21T01:58:40;90102.31;;;-0.38;71.70
22649;BME280;11491;41.942;24.220;2023-02-21T02:01:45;90114.63;;;-0.33;71.49
22649;BME280;11491;41.942;24.220;2023-02-21T02:04:32;90097.47;;;-0.20;72.56
22649;BME280;11491;41.942;24.220;2023-02-21T02:07:17;90113.69;;;-0.08;71.89
22649;BME280;11491;41.942;24.220;2023-02-21T02:10:01;90104.63;;;0.08;71.00
22649;BME280;11491;41.942;24.220;2023-02-21T02:13:22;90110.88;;;0.12;71.08
22649;BME280;11491;41.942;24.220;2023-02-21T02:15:56;90098.50;;;0.18;69.61
22649;BME280;11491;41.942;24.220;2023-02-21T02:18:37;90096.66;;;0.18;69.67
22649;BME280;11491;41.942;24.220;2023-02-21T02:21:40;90092.56;;;0.02;70.62
22649;BME280;11491;41.942;24.220;2023-02-21T02:27:23;90080.44;;;0.06;70.86
22649;BME280;11491;41.942;24.220;2023-02-21T02:30:15;90087.59;;;0.01;71.41
22649;BME280;11491;41.942;24.220;2023-02-21T02:33:08;90092.09;;;0.00;71.32
22649;BME280;11491;41.942;24.220;2023-02-21T02:35:45;90062.03;;;0.06;70.93
22649;BME280;11491;41.942;24.220;2023-02-21T02:38:18;90090.78;;;-0.08;71.50
22649;BME280;11491;41.942;24.220;2023-02-21T02:40:52;90080.56;;;-0.09;71.81
22649;BME280;11491;41.942;24.220;2023-02-21T02:43:27;90081.53;;;0.05;70.71
22649;BME280;11491;41.942;24.220;2023-02-21T02:45:57;90089.84;;;0.17;70.31
22649;BME280;11491;41.942;24.220;2023-02-21T02:48:30;90086.19;;;0.13;70.79
22649;BME280;11491;41.942;24.220;2023-02-21T02:51:02;90075.56;;;0.24;70.30
22649;BME280;11491;41.942;24.220;2023-02-21T02:53:31;90075.53;;;0.29;70.16
22649;BME280;11491;41.942;24.220;2023-02-21T02:55:59;90077.16;;;0.19;70.66
22649;BME280;11491;41.942;24.220;2023-02-21T02:58:34;90072.88;;;0.29;70.22
22649;BME280;11491;41.942;24.220;2023-02-21T03:01:13;90072.09;;;0.28;70.41
22649;BME280;11491;41.942;24.220;2023-02-21T03:03:55;90094.03;;;0.18;71.31
22649;BME280;11491;41.942;24.220;2023-02-21T03:06:32;90072.34;;;0.03;72.23
22649;BME280;11491;41.942;24.220;2023-02-21T03:09:08;90076.91;;;0.21;71.46
22649;BME280;11491;41.942;24.220;2023-02-21T03:11:42;90082.75;;;0.42;70.66
22649;BME280;11491;41.942;24.220;2023-02-21T03:14:14;90077.63;;;0.27;70.57
22649;BME280;11491;41.942;24.220;2023-02-21T03:16:46;90079.22;;;0.28;70.46
22649;BME280;11491;41.942;24.220;2023-02-21T03:19:16;90078.31;;;0.42;70.13
22649;BME280;11491;41.942;24.220;2023-02-21T03:21:49;90076.59;;;0.52;70.35
22649;BME280;11491;41.942;24.220;2023-02-21T03:24:19;90065.09;;;0.48;70.38
22649;BME280;11491;41.942;24.220;2023-02-21T03:26:49;90079.19;;;0.33;70.88
22649;BME280;11491;41.942;24.220;2023-02-21T03:29:18;90077.94;;;0.25;71.00
22649;BME280;11491;41.942;24.220;2023-02-21T03:31:48;90068.88;;;0.36;71.13
22649;BME280;11491;41.942;24.220;2023-02-21T03:34:19;90083.88;;;0.36;71.13
22649;BME280;11491;41.942;24.220;2023-02-21T03:36:48;90078.09;;;0.34;71.25
22649;BME280;11491;41.942;24.220;2023-02-21T03:39:14;90080.25;;;0.27;71.51
22649;BME280;11491;41.942;24.220;2023-02-21T03:41:41;90078.75;;;0.20;70.90
22649;BME280;11491;41.942;24.220;2023-02-21T03:44:08;90071.44;;;0.17;72.18
22649;BME280;11491;41.942;24.220;2023-02-21T03:46:35;90033.44;;;-0.01;72.38
22649;BME280;11491;41.942;24.220;2023-02-21T03:49:01;90068.19;;;0.26;72.21
22649;BME280;11491;41.942;24.220;2023-02-21T03:51:28;90070.63;;;0.17;72.09
22649;BME280;11491;41.942;24.220;2023-02-21T03:53:56;90062.22;;;0.15;72.82
22649;BME280;11491;41.942;24.220;2023-02-21T03:56:23;90067.16;;;0.21;72.71
22649;BME280;11491;41.942;24.220;2023-02-21T03:58:50;90056.09;;;0.25;73.03
22649;BME280;11491;41.942;24.220;2023-02-21T04:01:16;90064.50;;;0.27;72.81
22649;BME280;11491;41.942;24.220;2023-02-21T04:03:43;90057.63;;;0.31;72.69
22649;BME280;11491;41.942;24.220;2023-02-21T04:06:10;90060.59;;;0.48;71.16
22649;BME280;11491;41.942;24.220;2023-02-21T04:08:37;90070.13;;;0.44;72.04
22649;BME280;11491;41.942;24.220;2023-02-21T04:11:05;90060.94;;;0.41;72.38
22649;BME280;11491;41.942;24.220;2023-02-21T04:13:31;90055.81;;;0.55;70.85
22649;BME280;11491;41.942;24.220;2023-02-21T04:15:58;90063.34;;;0.38;71.25
22649;BME280;11491;41.942;24.220;2023-02-21T04:18:25;90067.44;;;0.49;70.71
22649;BME280;11491;41.942;24.220;2023-02-21T04:20:52;90071.75;;;0.40;71.23
22649;BME280;11491;41.942;24.220;2023-02-21T04:23:20;90080.59;;;0.49;71.11
22649;BME280;11491;41.942;24.220;2023-02-21T04:25:47;90073.25;;;0.46;70.98
22649;BME280;11491;41.942;24.220;2023-02-21T04:28:15;90073.34;;;0.36;71.16
22649;BME280;11491;41.942;24.220;2023-02-21T04:30:42;90072.31;;;0.32;71.79
22649;BME280;11491;41.942;24.220;2023-02-21T04:33:08;90074.81;;;-0.11;73.90
22649;BME280;11491;41.942;24.220;2023-02-21T04:35:35;90075.97;;;-0.28;74.59
22649;BME280;11491;41.942;24.220;2023-02-21T04:38:02;90081.63;;;-0.10;74.87
22649;BME280;11491;41.942;24.220;2023-02-21T04:40:29;90074.16;;;0.02;75.10
22649;BME280;11491;41.942;24.220;2023-02-21T04:42:55;90081.47;;;0.10;74.45
22649;BME280;11491;41.942;24.220;2023-02-21T04:45:24;90073.19;;;0.22;74.85
22649;BME280;11491;41.942;24.220;2023-02-21T04:47:50;90074.44;;;0.30;73.88
22649;BME280;11491;41.942;24.220;2023-02-21T04:50:17;90073.09;;;0.32;73.79
22649;BME280;11491;41.942;24.220;2023-02-21T04:52:45;90078.72;;;0.26;73.83
22649;BME280;11491;41.942;24.220;2023-02-21T04:55:13;90084.34;;;0.43;72.73
22649;BME280;11491;41.942;24.220;2023-02-21T04:57:40;90079.63;;;0.40;72.11
22649;BME280;11491;41.942;24.220;2023-02-21T05:00:09;90078.50;;;0.46;73.04
22649;BME280;11491;41.942;24.220;2023-02-21T05:05:26;90093.16;;;0.57;72.02
22649;BME280;11491;41.942;24.220;2023-02-21T05:07:53;90094.34;;;0.41;72.59
22649;BME280;11491;41.942;24.220;2023-02-21T05:10:29;90086.56;;;0.60;71.51
22649;BME280;11491;41.942;24.220;2023-02-21T05:12:55;90085.69;;;0.64;71.05
22649;BME280;11491;41.942;24.220;2023-02-21T05:15:22;90085.94;;;0.68;70.86
22649;BME280;11491;41.942;24.220;2023-02-21T05:17:51;90095.72;;;0.62;70.76
22649;BME280;11491;41.942;24.220;2023-02-21T05:20:18;90089.69;;;0.33;72.22
22649;BME280;11491;41.942;24.220;2023-02-21T05:22:47;90093.84;;;0.39;71.84
22649;BME280;11491;41.942;24.220;2023-02-21T05:25:15;90093.66;;;0.30;73.04
22649;BME280;11491;41.942;24.220;2023-02-21T05:27:43;90094.91;;;0.38;73.18
22649;BME280;11491;41.942;24.220;2023-02-21T05:30:11;90084.34;;;0.43;73.19
22649;BME280;11491;41.942;24.220;2023-02-21T05:32:39;90094.50;;;0.55;73.11
22649;BME280;11491;41.942;24.220;2023-02-21T05:35:08;90088.94;;;0.56;73.93
22649;BME280;11491;41.942;24.220;2023-02-21T05:37:35;90107.19;;;0.72;73.66
22649;BME280;11491;41.942;24.220;2023-02-21T05:40:02;90101.94;;;0.72;73.49
22649;BME280;11491;41.942;24.220;2023-02-21T05:42:30;90098.56;;;0.66;74.06
22649;BME280;11491;41.942;24.220;2023-02-21T05:44:57;90098.22;;;0.78;73.51
22649;BME280;11491;41.942;24.220;2023-02-21T05:47:24;90092.56;;;0.90;72.87
22649;BME280;11491;41.942;24.220;2023-02-21T05:49:50;90089.19;;;0.84;72.77
22649;BME280;11491;41.942;24.220;2023-02-21T05:52:19;90099.25;;;0.77;72.83
22649;BME280;11491;41.942;24.220;2023-02-21T05:54:45;90103.53;;;0.73;73.78
22649;BME280;11491;41.942;24.220;2023-02-21T05:57:12;90088.63;;;0.63;73.74
22649;BME280;11491;41.942;24.220;2023-02-21T05:59:39;90079.28;;;0.76;73.27
22649;BME280;11491;41.942;24.220;2023-02-21T06:02:05;90082.91;;;0.80;72.64
22649;BME280;11491;41.942;24.220;2023-02-21T06:04:32;90080.13;;;0.95;72.01
22649;BME280;11491;41.942;24.220;2023-02-21T06:06:59;90085.94;;;0.92;72.74
22649;BME280;11491;41.942;24.220;2023-02-21T06:09:27;90081.47;;;0.93;72.39
22649;BME280;11491;41.942;24.220;2023-02-21T06:11:55;90079.78;;;0.78;72.57
22649;BME280;11491;41.942;24.220;2023-02-21T06:14:22;90081.16;;;0.46;74.54
22649;BME280;11491;41.942;24.220;2023-02-21T06:16:49;90070.63;;;0.46;74.74
22649;BME280;11491;41.942;24.220;2023-02-21T06:19:17;90072.59;;;0.59;75.09
22649;BME280;11491;41.942;24.220;2023-02-21T06:21:44;90067.78;;;0.67;75.46
22649;BME280;11491;41.942;24.220;2023-02-21T06:24:11;90075.50;;;0.82;74.21
22649;BME280;11491;41.942;24.220;2023-02-21T06:26:40;90078.53;;;0.94;73.88
22649;BME280;11491;41.942;24.220;2023-02-21T06:29:07;90085.31;;;1.00;73.27
22649;BME280;11491;41.942;24.220;2023-02-21T06:31:34;90077.28;;;1.11;73.02
22649;BME280;11491;41.942;24.220;2023-02-21T06:34:01;90082.00;;;1.14;72.85
22649;BME280;11491;41.942;24.220;2023-02-21T06:36:29;90077.56;;;1.09;73.32
22649;BME280;11491;41.942;24.220;2023-02-21T06:38:56;90090.06;;;1.22;72.80
22649;BME280;11491;41.942;24.220;2023-02-21T06:41:25;90089.75;;;1.24;73.21
22649;BME280;11491;41.942;24.220;2023-02-21T06:43:54;90088.78;;;1.20;73.66
22649;BME280;11491;41.942;24.220;2023-02-21T06:46:22;90092.78;;;1.36;73.15
22649;BME280;11491;41.942;24.220;2023-02-21T06:48:50;90092.16;;;1.44;73.33
22649;BME280;11491;41.942;24.220;2023-02-21T06:51:17;90099.72;;;1.70;73.21
22649;BME280;11491;41.942;24.220;2023-02-21T06:53:48;90094.09;;;1.96;71.83
22649;BME280;11491;41.942;24.220;2023-02-21T06:56:15;90095.94;;;1.95;71.63
22649;BME280;11491;41.942;24.220;2023-02-21T06:58:41;90103.41;;;2.07;71.95
22649;BME280;11491;41.942;24.220;2023-02-21T07:01:09;90098.16;;;2.07;71.87
22649;BME280;11491;41.942;24.220;2023-02-21T07:03:38;90093.72;;;2.02;72.81
22649;BME280;11491;41.942;24.220;2023-02-21T07:06:07;90098.41;;;2.24;72.30
22649;BME280;11491;41.942;24.220;2023-02-21T07:08:34;90094.25;;;2.51;72.18
22649;BME280;11491;41.942;24.220;2023-02-21T07:11:01;90080.56;;;2.82;71.48
22649;BME280;11491;41.942;24.220;2023-02-21T07:13:27;90096.00;;;3.30;70.29
22649;BME280;11491;41.942;24.220;2023-02-21T07:15:54;90105.19;;;3.60;69.34
22649;BME280;11491;41.942;24.220;2023-02-21T07:18:22;90099.66;;;3.84;67.39
22649;BME280;11491;41.942;24.220;2023-02-21T07:20:49;90106.09;;;4.05;66.19
22649;BME280;11491;41.942;24.220;2023-02-21T07:23:16;90099.22;;;4.04;66.40
22649;BME280;11491;41.942;24.220;2023-02-21T07:25:42;90095.69;;;4.31;66.49
22649;BME280;11491;41.942;24.220;2023-02-21T07:28:09;90101.28;;;4.75;66.37
22649;BME280;11491;41.942;24.220;2023-02-21T07:30:36;90095.72;;;5.16;64.25
22649;BME280;11491;41.942;24.220;2023-02-21T07:33:05;90086.03;;;5.52;63.57
22649;BME280;11491;41.942;24.220;2023-02-21T07:35:33;90070.19;;;5.87;61.60
22649;BME280;11491;41.942;24.220;2023-02-21T07:38:00;90077.41;;;6.12;60.41
22649;BME280;11491;41.942;24.220;2023-02-21T07:40:27;90075.69;;;6.51;59.70
22649;BME280;11491;41.942;24.220;2023-02-21T07:42:53;90073.13;;;6.89;57.17
22649;BME280;11491;41.942;24.220;2023-02-21T07:45:20;90070.84;;;7.18;57.13
22649;BME280;11491;41.942;24.220;2023-02-21T07:47:47;90076.31;;;7.60;56.62
22649;BME280;11491;41.942;24.220;2023-02-21T07:50:16;90075.03;;;7.95;55.88
22649;BME280;11491;41.942;24.220;2023-02-21T07:52:44;90059.84;;;8.17;55.38
22649;BME280;11491;41.942;24.220;2023-02-21T07:55:11;90064.16;;;8.51;55.58
22649;BME280;11491;41.942;24.220;2023-02-21T07:57:38;90060.63;;;8.80;54.42
22649;BME280;11491;41.942;24.220;2023-02-21T08:00:05;90057.69;;;9.06;53.04
22649;BME280;11491;41.942;24.220;2023-02-21T08:02:32;90059.88;;;9.38;52.78
22649;BME280;11491;41.942;24.220;2023-02-21T08:04:59;90047.63;;;9.74;52.09
22649;BME280;11491;41.942;24.220;2023-02-21T08:07:26;90044.06;;;10.06;50.59
22649;BME280;11491;41.942;24.220;2023-02-21T08:09:54;90040.56;;;10.43;48.68
22649;BME280;11491;41.942;24.220;2023-02-21T08:12:21;90043.50;;;10.66;49.04
22649;BME280;11491;41.942;24.220;2023-02-21T08:14:47;90034.66;;;11.06;45.31
22649;BME280;11491;41.942;24.220;2023-02-21T08:17:14;90039.56;;;11.04;43.71
22649;BME280;11491;41.942;24.220;2023-02-21T08:19:41;90037.91;;;11.15;43.82
22649;BME280;11491;41.942;24.220;2023-02-21T08:22:07;90028.31;;;11.58;43.74
22649;BME280;11491;41.942;24.220;2023-02-21T08:24:34;90024.19;;;12.12;42.79
22649;BME280;11491;41.942;24.220;2023-02-21T08:27:02;90021.56;;;12.31;39.76
22649;BME280;11491;41.942;24.220;2023-02-21T08:29:29;90020.19;;;12.21;39.39
22649;BME280;11491;41.942;24.220;2023-02-21T08:31:56;90011.34;;;12.56;39.41
22649;BME280;11491;41.942;24.220;2023-02-21T08:34:23;90009.91;;;13.01;38.73
22649;BME280;11491;41.942;24.220;2023-02-21T08:36:50;90011.47;;;13.22;38.63
22649;BME280;11491;41.942;24.220;2023-02-21T08:39:17;90014.47;;;13.63;38.31
22649;BME280;11491;41.942;24.220;2023-02-21T08:41:45;90003.28;;;13.84;37.57
22649;BME280;11491;41.942;24.220;2023-02-21T08:44:15;90003.22;;;14.30;39.10
22649;BME280;11491;41.942;24.220;2023-02-21T08:46:43;89993.50;;;14.78;37.65
22649;BME280;11491;41.942;24.220;2023-02-21T08:49:10;89999.44;;;15.28;36.22
22649;BME280;11491;41.942;24.220;2023-02-21T08:51:37;90000.03;;;15.11;34.76
22649;BME280;11491;41.942;24.220;2023-02-21T08:54:05;89991.28;;;15.62;35.16
22649;BME280;11491;41.942;24.220;2023-02-21T08:56:32;89995.63;;;16.19;33.02
22649;BME280;11491;41.942;24.220;2023-02-21T08:58:59;89992.41;;;16.57;34.02
22649;BME280;11491;41.942;24.220;2023-02-21T09:01:32;89995.41;;;17.22;34.02
22649;BME280;11491;41.942;24.220;2023-02-21T09:03:59;89990.91;;;17.91;33.13
22649;BME280;11491;41.942;24.220;2023-02-21T09:06:26;89993.56;;;18.62;32.25
22649;BME280;11491;41.942;24.220;2023-02-21T09:08:53;89979.78;;;19.41;29.90
22649;BME280;11491;41.942;24.220;2023-02-21T09:11:20;89978.63;;;20.09;29.51
22649;BME280;11491;41.942;24.220;2023-02-21T09:13:47;89983.63;;;20.59;29.23
22649;BME280;11491;41.942;24.220;2023-02-21T09:16:13;89978.81;;;20.77;27.00
22649;BME280;11491;41.942;24.220;2023-02-21T09:18:42;89976.22;;;21.01;28.41
22649;BME280;11491;41.942;24.220;2023-02-21T09:21:08;89982.88;;;21.30;27.81
22649;BME280;11491;41.942;24.220;2023-02-21T09:23:35;89981.66;;;21.69;25.85
22649;BME280;11491;41.942;24.220;2023-02-21T09:26:02;89981.66;;;21.69;25.13
22649;BME280;11491;41.942;24.220;2023-02-21T09:28:28;89972.28;;;21.70;25.05
22649;BME280;11491;41.942;24.220;2023-02-21T09:30:56;89972.22;;;21.47;24.53
22649;BME280;11491;41.942;24.220;2023-02-21T09:33:22;89964.34;;;21.22;24.56
22649;BME280;11491;41.942;24.220;2023-02-21T09:35:53;89961.50;;;21.33;26.87
22649;BME280;11491;41.942;24.220;2023-02-21T09:38:20;89945.72;;;21.82;26.59
22649;BME280;11491;41.942;24.220;2023-02-21T09:40:49;89961.00;;;22.50;25.51
22649;BME280;11491;41.942;24.220;2023-02-21T09:43:20;89945.28;;;23.05;23.47
22649;BME280;11491;41.942;24.220;2023-02-21T09:45:53;89947.94;;;23.28;23.11
22649;BME280;11491;41.942;24.220;2023-02-21T09:48:21;89936.06;;;23.75;23.09
22649;BME280;11491;41.942;24.220;2023-02-21T09:50:50;89940.66;;;24.14;20.95
22649;BME280;11491;41.942;24.220;2023-02-21T09:53:22;89943.22;;;24.21;21.76
22649;BME280;11491;41.942;24.220;2023-02-21T09:55:52;89938.44;;;24.09;19.44
22649;BME280;11491;41.942;24.220;2023-02-21T09:58:20;89937.75;;;23.69;20.21
22649;BME280;11491;41.942;24.220;2023-02-21T10:00:47;89930.72;;;23.31;19.67
22649;BME280;11491;41.942;24.220;2023-02-21T10:03:25;89931.81;;;22.74;21.38
22649;BME280;11491;41.942;24.220;2023-02-21T10:06:02;89928.22;;;22.57;21.79
22649;BME280;11491;41.942;24.220;2023-02-21T10:08:40;89928.56;;;23.03;21.11
22649;BME280;11491;41.942;24.220;2023-02-21T10:11:23;89926.91;;;22.85;20.46
22649;BME280;11491;41.942;24.220;2023-02-21T10:13:57;89924.41;;;22.94;20.85
22649;BME280;11491;41.942;24.220;2023-02-21T10:16:28;89896.97;;;23.05;21.80
22649;BME280;11491;41.942;24.220;2023-02-21T10:19:03;89921.28;;;23.36;20.92
22649;BME280;11491;41.942;24.220;2023-02-21T10:21:34;89918.84;;;23.41;20.59
22649;BME280;11491;41.942;24.220;2023-02-21T10:24:11;89915.22;;;22.65;20.13
22649;BME280;11491;41.942;24.220;2023-02-21T10:26:40;89913.44;;;21.84;20.79
22649;BME280;11491;41.942;24.220;2023-02-21T10:29:18;89903.97;;;21.92;23.48
22649;BME280;11491;41.942;24.220;2023-02-21T10:31:46;89912.00;;;21.76;22.29
22649;BME280;11491;41.942;24.220;2023-02-21T10:34:19;89912.53;;;21.90;20.75
22649;BME280;11491;41.942;24.220;2023-02-21T10:36:47;89912.28;;;21.23;23.05
22649;BME280;11491;41.942;24.220;2023-02-21T10:39:18;89905.66;;;20.94;22.68
22649;BME280;11491;41.942;24.220;2023-02-21T10:41:47;89905.22;;;20.99;22.29
22649;BME280;11491;41.942;24.220;2023-02-21T10:44:18;89887.00;;;20.96;22.70
22649;BME280;11491;41.942;24.220;2023-02-21T10:46:52;89902.91;;;20.63;22.46
22649;BME280;11491;41.942;24.220;2023-02-21T10:49:24;89893.69;;;20.53;23.33
22649;BME280;11491;41.942;24.220;2023-02-21T10:52:05;89894.84;;;20.90;23.13
22649;BME280;11491;41.942;24.220;2023-02-21T10:54:33;89896.97;;;21.06;23.29
22649;BME280;11491;41.942;24.220;2023-02-21T10:57:02;89889.19;;;21.08;22.74
22649;BME280;11491;41.942;24.220;2023-02-21T10:59:33;89892.81;;;21.28;22.51
22649;BME280;11491;41.942;24.220;2023-02-21T11:02:01;89886.13;;;21.64;23.18
22649;BME280;11491;41.942;24.220;2023-02-21T11:04:30;89876.03;;;21.64;22.93
22649;BME280;11491;41.942;24.220;2023-02-21T11:07:02;89879.41;;;21.45;21.80
22649;BME280;11491;41.942;24.220;2023-02-21T11:09:40;89880.56;;;21.17;22.79
22649;BME280;11491;41.942;24.220;2023-02-21T11:12:19;89857.66;;;21.45;22.76
22649;BME280;11491;41.942;24.220;2023-02-21T11:15:14;89873.66;;;21.66;21.34
22649;BME280;11491;41.942;24.220;2023-02-21T11:17:41;89858.56;;;21.35;21.23
22649;BME280;11491;41.942;24.220;2023-02-21T11:20:16;89862.00;;;21.39;22.44
22649;BME280;11491;41.942;24.220;2023-02-21T11:22:44;89858.88;;;21.67;21.06
22649;BME280;11491;41.942;24.220;2023-02-21T11:25:20;89847.59;;;21.92;22.58
22649;BME280;11491;41.942;24.220;2023-02-21T11:28:04;89848.94;;;21.57;21.01
22649;BME280;11491;41.942;24.220;2023-02-21T11:30:32;89852.22;;;21.45;21.26
22649;BME280;11491;41.942;24.220;2023-02-21T11:33:00;89854.47;;;20.92;21.25
22649;BME280;11491;41.942;24.220;2023-02-21T11:35:32;89846.34;;;20.54;21.41
22649;BME280;11491;41.942;24.220;2023-02-21T11:38:01;89833.16;;;19.77;22.12
22649;BME280;11491;41.942;24.220;2023-02-21T11:40:40;89845.28;;;20.07;23.11
22649;BME280;11491;41.942;24.220;2023-02-21T11:43:18;89847.03;;;20.62;21.19
22649;BME280;11491;41.942;24.220;2023-02-21T11:45:54;89841.44;;;20.76;20.31
22649;BME280;11491;41.942;24.220;2023-02-21T11:48:27;89819.63;;;20.83;19.89
22649;BME280;11491;41.942;24.220;2023-02-21T11:50:59;89835.19;;;20.79;19.80
22649;BME280;11491;41.942;24.220;2023-02-21T11:53:32;89825.44;;;20.55;22.20
22649;BME280;11491;41.942;24.220;2023-02-21T11:56:10;89819.25;;;21.12;21.60
22649;BME280;11491;41.942;24.220;2023-02-21T11:58:45;89801.63;;;20.97;20.20
22649;BME280;11491;41.942;24.220;2023-02-21T12:01:20;89816.16;;;21.41;21.94
22649;BME280;11491;41.942;24.220;2023-02-21T12:04:06;89814.41;;;22.25;21.38
22649;BME280;11491;41.942;24.220;2023-02-21T12:06:40;89814.69;;;22.90;22.24
22649;BME280;11491;41.942;24.220;2023-02-21T12:09:11;89806.06;;;23.32;22.23
22649;BME280;11491;41.942;24.220;2023-02-21T12:11:51;89806.31;;;23.21;23.22
22649;BME280;11491;41.942;24.220;2023-02-21T12:14:37;89805.59;;;23.17;22.85
22649;BME280;11491;41.942;24.220;2023-02-21T12:17:17;89807.59;;;23.33;22.48
22649;BME280;11491;41.942;24.220;2023-02-21T12:20:06;89801.59;;;23.58;22.12
22649;BME280;11491;41.942;24.220;2023-02-21T12:22:51;89803.63;;;23.54;22.03
22649;BME280;11491;41.942;24.220;2023-02-21T12:25:25;89796.94;;;23.55;22.55
22649;BME280;11491;41.942;24.220;2023-02-21T12:28:02;89787.09;;;24.10;22.80
22649;BME280;11491;41.942;24.220;2023-02-21T12:30:47;89791.25;;;24.60;21.91
22649;BME280;11491;41.942;24.220;2023-02-21T12:33:29;89786.69;;;24.24;21.32
22649;BME280;11491;41.942;24.220;2023-02-21T12:36:28;89785.22;;;23.91;20.71
22649;BME280;11491;41.942;24.220;2023-02-21T12:39:05;89784.53;;;23.86;22.55
22649;BME280;11491;41.942;24.220;2023-02-21T12:41:52;89780.19;;;24.35;22.12
22649;BME280;11491;41.942;24.220;2023-02-21T12:44:30;89779.50;;;24.89;21.17
22649;BME280;11491;41.942;24.220;2023-02-21T12:47:03;89775.41;;;24.97;20.30
22649;BME280;11491;41.942;24.220;2023-02-21T12:49:43;89770.16;;;25.15;19.96
22649;BME280;11491;41.942;24.220;2023-02-21T12:52:14;89776.00;;;25.18;19.40
22649;BME280;11491;41.942;24.220;2023-02-21T12:54:46;89760.25;;;25.22;21.05
22649;BME280;11491;41.942;24.220;2023-02-21T12:57:17;89769.00;;;25.29;20.20
22649;BME280;11491;41.942;24.220;2023-02-21T12:59:57;89769.78;;;25.30;20.01
22649;BME280;11491;41.942;24.220;2023-02-21T13:02:37;89767.97;;;25.10;20.75
22649;BME280;11491;41.942;24.220;2023-02-21T13:05:10;89755.00;;;24.73;19.68
22649;BME280;11491;41.942;24.220;2023-02-21T13:07:42;89751.16;;;24.41;20.00
22649;BME280;11491;41.942;24.220;2023-02-21T13:10:15;89749.44;;;24.18;20.88
22649;BME280;11491;41.942;24.220;2023-02-21T13:12:47;89749.22;;;23.96;21.12
22649;BME280;11491;41.942;24.220;2023-02-21T13:15:20;89743.94;;;23.89;21.07
22649;BME280;11491;41.942;24.220;2023-02-21T13:17:51;89744.34;;;24.03;20.62
22649;BME280;11491;41.942;24.220;2023-02-21T13:20:21;89744.25;;;24.07;21.34
22649;BME280;11491;41.942;24.220;2023-02-21T13:26:29;89754.22;;;24.43;20.51
22649;BME280;11491;41.942;24.220;2023-02-21T13:28:58;89745.19;;;24.46;20.86
22649;BME280;11491;41.942;24.220;2023-02-21T13:31:31;89745.22;;;24.29;20.21
22649;BME280;11491;41.942;24.220;2023-02-21T13:34:02;89744.06;;;24.14;21.06